Time;durP1;ratioP1;P1;durP2;ratioP2;P2;SDS_P1;SDS_P2;PMS_P1;PMS_P2;Temp;Humidity;BMP_temperature;BMP_pressure;BME280_temperature;BME280_humidity;BME280_pressure;Samples;Min_cycle;Max_cycle;Signal;HPM_P1;HPM_P2
2022/10/07 00:02:07;;;;;;;6.60;4.93;;;11.80;99.90;;;;;;5020649;28;20870;-66
2022/10/07 00:04:35;;;;;;;6.90;5.00;;;11.80;99.90;;;;;;5020979;28;20457;-66
2022/10/07 00:07:04;;;;;;;5.10;4.37;;;11.80;99.90;;;;;;5020472;28;20497;-67
2022/10/07 00:09:31;;;;;;;8.03;4.67;;;11.80;99.90;;;;;;5020238;28;20913;-66
2022/10/07 00:11:58;;;;;;;5.90;4.37;;;11.70;99.90;;;;;;5019382;28;20517;-66
2022/10/07 00:14:25;;;;;;;7.77;4.60;;;11.70;99.90;;;;;;5019250;28;20556;-66
2022/10/07 00:16:52;;;;;;;8.07;3.90;;;11.70;99.90;;;;;;5019512;28;20461;-66
2022/10/07 00:19:18;;;;;;;6.10;4.60;;;11.70;99.90;;;;;;5019129;28;20461;-66
2022/10/07 00:21:46;;;;;;;6.40;4.33;;;11.70;99.90;;;;;;5019107;28;20488;-66
2022/10/07 00:24:14;;;;;;;8.80;4.00;;;11.60;99.90;;;;;;5019230;28;20497;-66
2022/10/07 00:26:41;;;;;;;5.53;4.17;;;11.60;99.90;;;;;;5019092;28;20461;-66
2022/10/07 00:29:09;;;;;;;7.70;4.40;;;11.70;99.90;;;;;;5018806;28;20493;-66
2022/10/07 00:31:37;;;;;;;6.33;4.17;;;11.70;99.90;;;;;;5019511;28;20538;-66
2022/10/07 00:34:04;;;;;;;7.20;4.60;;;11.60;99.90;;;;;;5019817;28;20925;-66
2022/10/07 00:36:34;;;;;;;9.17;5.13;;;11.60;99.90;;;;;;5019722;28;20461;-66
2022/10/07 00:39:03;;;;;;;9.70;5.00;;;11.60;99.90;;;;;;5019321;28;20519;-67
2022/10/07 00:41:33;;;;;;;7.87;5.23;;;11.60;99.90;;;;;;5019524;28;20469;-66
2022/10/07 00:44:20;;;;;;;8.37;5.20;;;11.60;99.90;;;;;;5019352;28;20473;-66
2022/10/07 00:46:48;;;;;;;5.60;4.20;;;11.50;99.90;;;;;;5019424;28;20499;-67
2022/10/07 00:49:14;;;;;;;6.57;4.87;;;11.50;99.90;;;;;;5019890;28;20498;-67
2022/10/07 00:51:43;;;;;;;7.73;5.50;;;11.40;99.90;;;;;;5018538;28;20515;-67
2022/10/07 00:54:13;;;;;;;11.53;5.20;;;11.50;99.90;;;;;;5018426;28;20457;-67
2022/10/07 00:56:42;;;;;;;7.60;4.67;;;11.50;99.90;;;;;;5018310;28;20480;-67
2022/10/07 00:59:10;;;;;;;7.63;4.73;;;11.40;99.90;;;;;;5019002;28;20461;-67
2022/10/07 01:01:40;;;;;;;12.00;5.00;;;11.40;99.90;;;;;;5019774;28;20513;-66
2022/10/07 01:04:08;;;;;;;13.80;5.00;;;11.40;99.90;;;;;;5019565;28;20461;-67
2022/10/07 01:06:38;;;;;;;6.87;4.80;;;11.30;99.90;;;;;;5018758;28;20494;-67
2022/10/07 01:09:05;;;;;;;7.73;4.70;;;11.30;99.90;;;;;;5018585;28;20501;-65
2022/10/07 01:11:48;;;;;;;6.40;5.07;;;11.30;99.90;;;;;;5018690;28;20523;-64
2022/10/07 01:14:24;;;;;;;9.67;4.80;;;11.30;99.90;;;;;;5018919;28;20469;-65
2022/10/07 01:17:00;;;;;;;6.83;4.43;;;11.20;99.90;;;;;;5019366;28;20847;-66
2022/10/07 01:19:50;;;;;;;6.53;5.23;;;11.20;99.90;;;;;;5018777;28;20457;-66
2022/10/07 01:22:27;;;;;;;8.33;4.60;;;11.20;99.90;;;;;;5018931;28;20504;-66
2022/10/07 01:25:08;;;;;;;5.43;4.73;;;11.10;99.90;;;;;;5018805;28;20963;-66
2022/10/07 01:27:37;;;;;;;8.63;5.40;;;11.10;99.90;;;;;;5018948;28;20445;-66
2022/10/07 01:30:07;;;;;;;6.30;4.47;;;11.10;99.90;;;;;;5019541;28;20495;-66
2022/10/07 01:32:36;;;;;;;8.40;4.80;;;11.00;99.90;;;;;;5017732;28;20539;-66
2022/10/07 01:35:10;;;;;;;6.60;4.30;;;11.00;99.90;;;;;;5019077;28;20510;-66
2022/10/07 01:37:41;;;;;;;10.70;4.40;;;11.00;99.90;;;;;;5018805;28;20516;-66
2022/10/07 01:40:14;;;;;;;10.93;4.40;;;11.00;99.90;;;;;;5018055;28;20445;-66
2022/10/07 01:42:43;;;;;;;6.17;4.60;;;10.90;99.90;;;;;;5018602;28;20437;-66
2022/10/07 01:45:14;;;;;;;10.00;4.90;;;10.90;99.90;;;;;;5019113;28;20797;-66
2022/10/07 01:47:41;;;;;;;5.60;4.67;;;10.90;99.90;;;;;;5018961;28;20473;-66
2022/10/07 01:50:12;;;;;;;14.63;4.47;;;10.90;99.90;;;;;;5018995;28;20484;-66
2022/10/07 01:53:00;;;;;;;6.37;4.53;;;10.90;99.90;;;;;;5018449;28;20468;-66
2022/10/07 01:55:42;;;;;;;8.10;3.77;;;10.80;99.90;;;;;;5017788;28;20492;-65
2022/10/07 01:58:23;;;;;;;5.57;4.10;;;10.80;99.90;;;;;;5018040;28;20469;-67
2022/10/07 02:01:00;;;;;;;8.13;3.73;;;10.80;99.90;;;;;;5018294;28;20442;-67
2022/10/07 02:03:46;;;;;;;7.17;4.00;;;10.80;99.90;;;;;;5018636;28;20437;-67
2022/10/07 02:06:26;;;;;;;8.10;3.90;;;10.80;99.90;;;;;;5018592;28;20476;-66
2022/10/07 02:08:55;;;;;;;9.13;4.17;;;10.70;99.90;;;;;;5018310;28;20445;-67
2022/10/07 02:11:26;;;;;;;6.87;3.70;;;10.70;99.90;;;;;;5018496;28;20527;-67
2022/10/07 02:14:00;;;;;;;8.37;4.27;;;10.60;99.90;;;;;;5018885;28;20482;-67
2022/10/07 02:16:33;;;;;;;6.90;4.50;;;10.70;99.90;;;;;;5018646;28;20471;-67
2022/10/07 02:19:04;;;;;;;18.10;4.30;;;10.60;99.90;;;;;;5019416;28;20480;-67
2022/10/07 02:21:35;;;;;;;10.53;4.60;;;10.60;99.90;;;;;;5018315;28;20445;-67
2022/10/07 02:24:03;;;;;;;8.13;3.60;;;10.60;99.90;;;;;;5018807;28;20797;-66
2022/10/07 02:26:32;;;;;;;10.00;3.57;;;10.60;99.90;;;;;;5018688;28;20539;-66
2022/10/07 02:29:05;;;;;;;9.63;4.33;;;10.60;99.90;;;;;;5018120;28;20460;-66
2022/10/07 02:31:33;;;;;;;9.97;4.67;;;10.50;99.90;;;;;;5018856;28;20445;-66
2022/10/07 02:34:03;;;;;;;4.50;4.00;;;10.50;99.90;;;;;;5018453;28;20457;-66
2022/10/07 02:36:33;;;;;;;4.87;3.80;;;10.50;99.90;;;;;;5018166;28;20559;-66
2022/10/07 02:39:01;;;;;;;7.30;4.60;;;10.50;99.90;;;;;;5018143;28;20449;-66
2022/10/07 02:41:40;;;;;;;9.20;4.33;;;10.60;99.90;;;;;;5018249;28;20519;-66
2022/10/07 02:44:15;;;;;;;5.50;3.60;;;10.50;99.90;;;;;;5017775;28;20501;-66
2022/10/07 02:46:47;;;;;;;11.93;4.83;;;10.50;99.90;;;;;;5018150;28;20441;-66
2022/10/07 02:49:16;;;;;;;8.17;4.47;;;10.50;99.90;;;;;;5018303;28;20499;-66
2022/10/07 02:51:48;;;;;;;10.17;4.50;;;10.60;99.90;;;;;;5020477;28;20926;-67
2022/10/07 02:54:20;;;;;;;10.50;4.77;;;10.50;99.90;;;;;;5022017;28;20552;-67
2022/10/07 02:56:50;;;;;;;5.17;3.80;;;10.50;99.90;;;;;;5020380;28;20550;-67
2022/10/07 02:59:20;;;;;;;7.23;4.53;;;10.50;99.90;;;;;;5020788;28;20488;-64
2022/10/07 03:01:50;;;;;;;7.47;4.97;;;10.50;99.90;;;;;;5020263;28;20473;-66
2022/10/07 03:04:17;;;;;;;5.23;3.93;;;10.60;99.90;;;;;;5020110;28;20792;-66
2022/10/07 03:06:44;;;;;;;7.37;4.83;;;10.50;99.90;;;;;;5019294;28;20461;-66
2022/10/07 03:09:11;;;;;;;9.90;4.97;;;10.50;99.90;;;;;;5019689;28;20527;-66
2022/10/07 03:11:39;;;;;;;6.40;4.73;;;10.50;99.90;;;;;;5019642;28;20495;-66
2022/10/07 03:14:06;;;;;;;8.27;4.27;;;10.50;99.90;;;;;;5019860;28;20461;-66
2022/10/07 03:16:34;;;;;;;6.70;4.67;;;10.50;99.90;;;;;;5019696;28;20790;-66
2022/10/07 03:19:01;;;;;;;7.43;4.30;;;10.50;99.90;;;;;;5020049;28;20515;-66
2022/10/07 03:21:31;;;;;;;8.70;5.13;;;10.40;99.90;;;;;;5019783;28;20834;-66
2022/10/07 03:24:03;;;;;;;6.40;4.13;;;10.40;99.90;;;;;;5019809;28;20917;-66
2022/10/07 03:26:31;;;;;;;9.30;4.87;;;10.40;99.90;;;;;;5019846;28;20441;-66
2022/10/07 03:29:00;;;;;;;9.97;4.87;;;10.30;99.90;;;;;;5019897;28;20488;-66
2022/10/07 03:31:27;;;;;;;5.50;4.40;;;10.30;99.90;;;;;;5019392;28;20584;-66
2022/10/07 03:33:56;;;;;;;8.03;4.93;;;10.30;99.90;;;;;;5019530;28;20822;-66
2022/10/07 03:36:23;;;;;;;6.73;5.00;;;10.30;99.90;;;;;;5019588;28;20503;-66
2022/10/07 03:38:51;;;;;;;6.60;5.10;;;10.20;99.90;;;;;;5019050;28;20508;-66
2022/10/07 03:41:19;;;;;;;9.80;4.87;;;10.30;99.90;;;;;;5018824;28;20471;-65
2022/10/07 03:43:46;;;;;;;7.80;4.40;;;10.20;99.90;;;;;;5019350;28;20452;-66
2022/10/07 03:46:13;;;;;;;7.73;5.03;;;10.20;99.90;;;;;;5021207;28;20534;-65
2022/10/07 03:48:40;;;;;;;9.33;5.70;;;10.10;99.90;;;;;;5019460;28;20518;-66
2022/10/07 03:51:08;;;;;;;12.20;5.13;;;10.20;99.90;;;;;;5019222;28;20522;-66
2022/10/07 03:53:37;;;;;;;9.20;5.37;;;10.10;99.90;;;;;;5018587;28;20558;-66
2022/10/07 03:56:05;;;;;;;8.47;5.30;;;10.10;99.90;;;;;;5019390;28;20964;-66
2022/10/07 03:58:32;;;;;;;7.50;4.93;;;10.10;99.90;;;;;;5019114;28;20847;-66
2022/10/07 04:01:06;;;;;;;9.13;5.33;;;10.10;99.90;;;;;;5019019;28;20488;-66
2022/10/07 04:03:33;;;;;;;12.47;5.47;;;10.00;99.90;;;;;;5018478;28;20476;-66
2022/10/07 04:06:00;;;;;;;10.93;4.97;;;10.00;99.90;;;;;;5018570;28;20465;-66
2022/10/07 04:08:29;;;;;;;7.97;5.60;;;10.00;99.90;;;;;;5018522;28;20461;-66
2022/10/07 04:10:57;;;;;;;9.97;5.00;;;9.90;99.90;;;;;;5018504;28;20543;-67
2022/10/07 04:13:24;;;;;;;7.67;5.47;;;9.90;99.90;;;;;;5018293;28;20881;-66
2022/10/07 04:15:51;;;;;;;7.23;5.40;;;9.90;99.90;;;;;;5018526;28;20792;-66
2022/10/07 04:18:18;;;;;;;8.50;5.20;;;9.90;99.90;;;;;;5018296;28;20770;-66
2022/10/07 04:20:45;;;;;;;15.33;5.73;;;9.90;99.90;;;;;;5017956;28;20465;-66
2022/10/07 04:23:12;;;;;;;10.43;5.50;;;9.90;99.90;;;;;;5018481;28;20823;-66
2022/10/07 04:25:44;;;;;;;10.30;6.07;;;9.90;99.90;;;;;;5017781;28;20849;-66
2022/10/07 04:28:17;;;;;;;8.73;4.97;;;9.90;99.90;;;;;;5017812;28;20446;-66
2022/10/07 04:30:47;;;;;;;7.50;4.87;;;9.90;99.90;;;;;;5017809;28;20536;-68
2022/10/07 04:33:14;;;;;;;8.50;5.23;;;9.90;99.90;;;;;;5017812;28;20523;-67
2022/10/07 04:35:41;;;;;;;10.93;5.07;;;9.90;99.90;;;;;;5018128;28;20560;-67
2022/10/07 04:38:10;;;;;;;8.50;4.90;;;10.00;99.90;;;;;;5017901;28;20453;-65
2022/10/07 04:40:40;;;;;;;9.70;5.17;;;9.90;99.90;;;;;;5017631;28;20484;-66
2022/10/07 04:43:26;;;;;;;8.97;4.40;;;9.90;99.90;;;;;;5017297;28;20511;-66
2022/10/07 04:45:54;;;;;;;6.43;4.20;;;9.90;99.90;;;;;;5017340;28;20441;-66
2022/10/07 04:48:23;;;;;;;7.97;4.60;;;9.90;99.90;;;;;;5017367;28;20492;-67
2022/10/07 04:50:51;;;;;;;7.40;4.70;;;9.90;99.90;;;;;;5017632;28;20488;-66
2022/10/07 04:53:19;;;;;;;13.37;5.10;;;9.80;99.90;;;;;;5017607;28;20489;-67
2022/10/07 04:55:48;;;;;;;8.87;5.37;;;9.80;99.90;;;;;;5017067;28;20485;-66
2022/10/07 04:58:18;;;;;;;7.87;5.27;;;9.80;99.90;;;;;;5017445;28;20457;-66
2022/10/07 05:00:46;;;;;;;10.27;5.23;;;9.80;99.90;;;;;;5017564;28;20465;-67
2022/10/07 05:03:15;;;;;;;10.63;5.40;;;9.80;99.90;;;;;;5017215;28;20937;-66
2022/10/07 05:05:43;;;;;;;8.07;5.07;;;9.80;99.90;;;;;;5017558;28;20471;-66
2022/10/07 05:08:10;;;;;;;12.37;5.00;;;9.80;99.90;;;;;;5017415;28;20540;-66
2022/10/07 05:10:38;;;;;;;7.30;5.07;;;9.80;99.90;;;;;;5017458;28;20515;-66
2022/10/07 05:13:05;;;;;;;6.97;5.17;;;9.80;99.90;;;;;;5017015;28;20481;-67
2022/10/07 05:15:33;;;;;;;7.13;5.77;;;9.70;99.90;;;;;;5017101;28;20489;-67
2022/10/07 05:18:00;;;;;;;7.30;4.87;;;9.70;99.90;;;;;;5016877;28;20487;-66
2022/10/07 05:20:27;;;;;;;8.23;5.10;;;9.70;99.90;;;;;;5017056;28;20453;-66
2022/10/07 05:22:54;;;;;;;12.13;5.47;;;9.70;99.90;;;;;;5017148;28;20793;-67
2022/10/07 05:25:21;;;;;;;5.60;4.93;;;9.70;99.90;;;;;;5017341;28;20515;-66
2022/10/07 05:27:52;;;;;;;11.50;6.00;;;9.70;99.90;;;;;;5016392;28;20460;-67
2022/10/07 05:30:20;;;;;;;6.10;5.40;;;9.60;99.90;;;;;;5017055;28;20445;-67
2022/10/07 05:32:49;;;;;;;43.07;26.47;;;9.60;99.90;;;;;;5016885;28;20547;-66
2022/10/07 05:35:16;;;;;;;10.80;6.27;;;9.60;99.90;;;;;;5017410;28;20488;-67
2022/10/07 05:37:43;;;;;;;11.53;5.77;;;9.70;99.90;;;;;;5016892;28;20481;-66
2022/10/07 05:40:11;;;;;;;10.13;5.17;;;9.60;99.90;;;;;;5016589;28;20485;-67
2022/10/07 05:42:38;;;;;;;6.53;5.87;;;9.60;99.90;;;;;;5016496;28;20809;-67
2022/10/07 05:45:06;;;;;;;7.90;5.20;;;9.60;99.90;;;;;;5016372;28;20520;-66
2022/10/07 05:47:33;;;;;;;8.67;5.20;;;9.60;99.90;;;;;;5016646;28;20511;-67
2022/10/07 05:50:02;;;;;;;8.80;6.57;;;9.60;99.90;;;;;;5016713;28;20925;-68
2022/10/07 05:52:30;;;;;;;8.80;5.43;;;9.60;99.90;;;;;;5016874;28;20511;-66
2022/10/07 05:54:57;;;;;;;10.63;6.00;;;9.60;99.90;;;;;;5016245;28;20543;-67
2022/10/07 05:57:24;;;;;;;10.70;5.30;;;9.60;99.90;;;;;;5016725;28;20437;-67
2022/10/07 05:59:51;;;;;;;11.90;6.60;;;9.60;99.90;;;;;;5016554;28;20519;-67
2022/10/07 06:02:19;;;;;;;11.23;6.13;;;9.70;99.90;;;;;;5016443;28;20965;-67
2022/10/07 06:04:47;;;;;;;12.23;6.03;;;9.70;99.90;;;;;;5015867;28;20453;-67
2022/10/07 06:07:16;;;;;;;11.90;5.30;;;9.70;99.90;;;;;;5016532;28;20488;-67
2022/10/07 06:15:12;;;;;;;8.00;6.80;;;9.70;99.90;;;;;;5016228;28;20488;-67
2022/10/07 06:17:42;;;;;;;12.37;6.20;;;9.80;99.90;;;;;;5016721;28;20530;-66
2022/10/07 06:20:10;;;;;;;13.93;5.40;;;9.80;99.90;;;;;;5016581;28;20465;-66
2022/10/07 06:22:38;;;;;;;6.83;5.70;;;9.70;99.90;;;;;;5016213;28;20511;-66
2022/10/07 06:25:07;;;;;;;10.63;6.00;;;9.70;99.90;;;;;;5017208;28;20824;-67
2022/10/07 06:27:34;;;;;;;10.13;5.90;;;9.80;99.90;;;;;;5020119;28;20503;-67
2022/10/07 06:30:02;;;;;;;8.80;5.50;;;9.80;99.90;;;;;;5020359;28;20848;-67
2022/10/07 06:32:29;;;;;;;12.27;5.77;;;9.80;99.90;;;;;;5020406;28;20457;-68
2022/10/07 06:34:56;;;;;;;15.80;7.00;;;9.80;99.90;;;;;;5020252;28;20484;-66
2022/10/07 06:37:23;;;;;;;10.00;6.57;;;9.80;99.90;;;;;;5020140;28;20944;-66
2022/10/07 06:39:51;;;;;;;12.70;7.77;;;9.80;99.90;;;;;;5019707;28;20493;-66
2022/10/07 06:42:18;;;;;;;12.23;6.73;;;9.90;99.90;;;;;;5019954;28;20465;-67
2022/10/07 06:44:45;;;;;;;9.50;5.70;;;9.90;99.90;;;;;;5020269;28;20457;-65
2022/10/07 06:47:12;;;;;;;17.43;7.23;;;9.90;99.90;;;;;;5019732;28;20526;-66
2022/10/07 06:49:39;;;;;;;10.70;7.13;;;10.00;99.90;;;;;;5019605;28;20913;-66
2022/10/07 06:52:06;;;;;;;12.83;5.80;;;10.00;99.90;;;;;;5019601;28;20489;-66
2022/10/07 06:54:33;;;;;;;8.17;5.77;;;10.10;99.90;;;;;;5019867;28;20870;-67
2022/10/07 06:57:02;;;;;;;11.13;6.47;;;10.10;99.90;;;;;;5019332;28;20480;-67
2022/10/07 06:59:29;;;;;;;9.70;6.33;;;10.10;99.90;;;;;;5020138;28;20528;-66
2022/10/07 07:01:56;;;;;;;15.40;6.77;;;10.20;99.90;;;;;;5020266;28;20523;-66
2022/10/07 07:04:24;;;;;;;9.00;6.17;;;10.20;99.90;;;;;;5019514;28;20781;-66
2022/10/07 07:06:51;;;;;;;15.40;6.73;;;10.30;99.90;;;;;;5019623;28;20459;-66
2022/10/07 07:09:20;;;;;;;9.97;6.17;;;10.30;99.90;;;;;;5019454;28;20457;-67
2022/10/07 07:11:47;;;;;;;6.93;6.03;;;10.40;99.90;;;;;;5019809;28;20543;-67
2022/10/07 07:14:15;;;;;;;10.10;6.27;;;10.50;99.90;;;;;;5019454;28;20481;-66
2022/10/07 07:16:42;;;;;;;10.43;6.70;;;10.60;99.90;;;;;;5019276;28;20480;-69
2022/10/07 07:19:12;;;;;;;14.40;6.47;;;10.60;99.90;;;;;;5019702;28;20468;-67
2022/10/07 07:21:39;;;;;;;9.30;6.27;;;10.70;99.90;;;;;;5020966;28;20453;-67
2022/10/07 07:24:07;;;;;;;9.77;6.77;;;10.70;99.90;;;;;;5020784;28;20921;-66
2022/10/07 07:26:36;;;;;;;9.90;6.20;;;10.80;99.90;;;;;;5020082;28;20465;-67
2022/10/07 07:29:05;;;;;;;11.10;6.30;;;10.90;99.90;;;;;;5020516;28;20453;-67
2022/10/07 07:31:35;;;;;;;13.80;6.60;;;11.00;99.90;;;;;;5020509;28;20499;-68
2022/10/07 07:34:06;;;;;;;8.37;6.20;;;11.00;99.90;;;;;;5021142;28;20885;-67
2022/10/07 07:36:35;;;;;;;12.13;6.77;;;11.10;99.90;;;;;;5018994;28;20445;-67
2022/10/07 07:39:05;;;;;;;15.93;6.80;;;11.20;99.90;;;;;;5018895;28;21012;-67
2022/10/07 07:41:34;;;;;;;11.73;6.47;;;11.30;99.90;;;;;;5019330;28;20441;-66
2022/10/07 07:44:03;;;;;;;8.50;6.37;;;11.30;99.90;;;;;;5018976;28;20819;-67
2022/10/07 07:46:37;;;;;;;9.33;5.90;;;11.40;99.90;;;;;;5019485;28;20484;-66
2022/10/07 07:49:04;;;;;;;12.60;6.37;;;11.50;99.90;;;;;;5019915;28;20438;-66
2022/10/07 07:51:32;;;;;;;14.30;6.70;;;11.50;99.90;;;;;;5019038;28;20501;-66
2022/10/07 07:53:59;;;;;;;12.43;6.30;;;11.60;99.90;;;;;;5018358;28;20477;-67
2022/10/07 07:56:30;;;;;;;17.60;7.27;;;11.70;99.90;;;;;;5019370;28;20571;-67
2022/10/07 07:58:58;;;;;;;10.70;6.97;;;11.80;99.90;;;;;;5018751;28;20866;-67
2022/10/07 08:01:25;;;;;;;10.17;5.57;;;11.80;99.90;;;;;;5019172;28;20461;-67
2022/10/07 08:03:54;;;;;;;8.60;6.23;;;11.90;99.90;;;;;;5019150;28;20464;-67
2022/10/07 08:06:21;;;;;;;11.37;5.80;;;12.00;99.90;;;;;;5018680;28;20497;-67
2022/10/07 08:08:50;;;;;;;7.30;5.70;;;12.10;99.90;;;;;;5018132;28;20499;-67
2022/10/07 08:11:19;;;;;;;8.20;5.70;;;12.10;99.90;;;;;;5018911;28;20538;-67
2022/10/07 08:13:47;;;;;;;7.20;5.30;;;12.30;99.90;;;;;;5018608;28;20481;-67
2022/10/07 08:16:16;;;;;;;8.70;5.17;;;12.40;99.90;;;;;;5018592;28;20838;-67
2022/10/07 08:18:44;;;;;;;12.57;5.80;;;12.50;99.90;;;;;;5019009;28;20465;-67
2022/10/07 08:21:14;;;;;;;7.53;5.57;;;12.60;99.90;;;;;;5018400;28;20564;-66
2022/10/07 08:23:41;;;;;;;10.77;5.10;;;12.70;99.90;;;;;;5018827;28;20468;-67
2022/10/07 08:26:08;;;;;;;10.83;4.80;;;12.80;99.90;;;;;;5019091;28;20523;-67
2022/10/07 08:28:36;;;;;;;6.87;5.20;;;12.90;99.90;;;;;;5018374;28;20940;-66
2022/10/07 08:31:04;;;;;;;9.97;5.00;;;13.00;99.90;;;;;;5018361;28;20853;-67
2022/10/07 08:33:34;;;;;;;17.13;6.40;;;13.20;99.90;;;;;;5019005;28;20471;-66
2022/10/07 08:36:03;;;;;;;7.03;5.47;;;13.30;99.90;;;;;;5018384;28;20464;-67
2022/10/07 08:38:32;;;;;;;9.80;5.47;;;13.50;99.90;;;;;;5018466;28;20489;-67
2022/10/07 08:41:12;;;;;;;9.03;5.37;;;13.50;99.90;;;;;;5019172;28;20504;-66
2022/10/07 08:43:44;;;;;;;10.40;5.40;;;13.60;99.90;;;;;;5018968;28;20441;-66
2022/10/07 08:46:15;;;;;;;6.20;4.07;;;13.70;99.90;;;;;;5018663;28;20481;-66
2022/10/07 08:48:46;;;;;;;6.20;4.20;;;13.80;99.90;;;;;;5018541;28;20472;-66
2022/10/07 08:51:19;;;;;;;5.60;4.50;;;14.00;99.90;;;;;;5020711;28;20509;-66
2022/10/07 08:53:49;;;;;;;10.77;5.13;;;14.10;99.90;;;;;;5020786;28;20639;-66
2022/10/07 08:56:18;;;;;;;6.60;3.63;;;14.20;99.90;;;;;;5019165;28;20820;-66
2022/10/07 08:58:58;;;;;;;9.60;3.60;;;14.30;99.90;;;;;;5020272;28;20949;-66
2022/10/07 09:01:36;;;;;;;3.90;3.13;;;14.40;99.90;;;;;;5022215;28;20448;-67
2022/10/07 09:04:15;;;;;;;8.80;3.50;;;14.50;99.90;;;;;;5020829;28;20433;-66
2022/10/07 09:06:49;;;;;;;5.97;3.47;;;14.60;99.90;;;;;;5021241;28;20445;-66
2022/10/07 09:09:22;;;;;;;8.23;3.80;;;14.70;99.90;;;;;;5021479;28;20940;-67
2022/10/07 09:11:51;;;;;;;6.47;3.50;;;14.70;99.90;;;;;;5020032;28;20984;-67
2022/10/07 09:14:25;;;;;;;6.13;2.90;;;14.80;99.90;;;;;;5020016;28;20484;-67
2022/10/07 09:16:56;;;;;;;4.67;3.00;;;14.80;99.90;;;;;;5019375;28;20445;-68
2022/10/07 09:19:31;;;;;;;5.87;3.70;;;14.90;99.90;;;;;;5017959;28;20460;-66
2022/10/07 09:22:05;;;;;;;5.77;3.13;;;14.90;99.90;;;;;;5019746;28;20511;-66
2022/10/07 09:24:35;;;;;;;3.90;2.90;;;15.00;99.90;;;;;;5018833;28;20448;-66
2022/10/07 09:27:07;;;;;;;7.60;3.40;;;15.10;99.90;;;;;;5019131;28;20479;-67
2022/10/07 09:29:37;;;;;;;4.93;2.97;;;15.20;99.90;;;;;;5016566;28;20703;-67
2022/10/07 09:32:04;;;;;;;6.40;3.07;;;15.20;99.90;;;;;;5018411;28;20467;-67
2022/10/07 09:34:32;;;;;;;10.70;3.70;;;15.30;99.90;;;;;;5018705;28;20543;-67
2022/10/07 09:37:13;;;;;;;9.27;3.07;;;15.30;99.90;;;;;;5018802;28;20449;-66
2022/10/07 09:39:43;;;;;;;8.63;3.20;;;15.40;99.90;;;;;;5019000;28;20934;-66
2022/10/07 09:42:23;;;;;;;4.33;3.00;;;15.40;99.90;;;;;;5018149;28;20460;-66
2022/10/07 09:44:51;;;;;;;3.90;2.80;;;15.50;99.90;;;;;;5017757;28;20527;-66
2022/10/07 09:47:22;;;;;;;5.13;2.93;;;15.60;99.90;;;;;;5018513;28;20499;-67
2022/10/07 09:49:51;;;;;;;8.70;3.70;;;15.60;99.90;;;;;;5017783;28;20489;-66
2022/10/07 09:52:22;;;;;;;6.27;3.10;;;15.70;99.90;;;;;;5019603;28;20841;-67
2022/10/07 09:54:52;;;;;;;4.40;3.27;;;15.80;99.90;;;;;;5018369;28;20523;-66
2022/10/07 09:57:31;;;;;;;9.80;3.63;;;15.80;99.90;;;;;;5019000;28;20485;-67
2022/10/07 10:00:20;;;;;;;6.70;3.30;;;15.90;99.90;;;;;;5020655;28;20440;-67
2022/10/07 10:02:50;;;;;;;4.23;2.57;;;16.10;99.90;;;;;;5021635;28;20459;-66
2022/10/07 10:05:27;;;;;;;11.70;2.93;;;16.10;99.90;;;;;;5021069;28;20453;-67
2022/10/07 10:07:57;;;;;;;8.03;2.73;;;16.20;99.90;;;;;;5022032;28;20483;-67
2022/10/07 10:10:28;;;;;;;7.77;2.90;;;16.30;99.90;;;;;;5021638;28;20465;-67
2022/10/07 10:12:57;;;;;;;4.73;2.13;;;16.40;99.90;;;;;;5021155;28;20476;-67
2022/10/07 10:15:28;;;;;;;6.40;2.27;;;16.40;99.90;;;;;;5021318;28;20600;-67
2022/10/07 10:17:56;;;;;;;3.83;2.10;;;16.50;99.90;;;;;;5021401;28;20477;-67
2022/10/07 10:20:32;;;;;;;3.27;2.10;;;16.50;99.90;;;;;;5021556;28;20488;-66
2022/10/07 10:23:01;;;;;;;5.50;2.10;;;16.50;99.90;;;;;;5022498;28;20519;-67
2022/10/07 10:28:43;;;;;;;5.20;2.40;;;16.70;99.90;;;;;;5021748;28;20510;-66
2022/10/07 10:31:19;;;;;;;4.50;1.90;;;16.70;99.90;;;;;;5020940;28;20441;-66
2022/10/07 10:33:53;;;;;;;6.17;2.57;;;16.80;99.90;;;;;;5021439;28;20440;-67
2022/10/07 10:36:25;;;;;;;5.33;2.40;;;16.80;99.90;;;;;;5022739;28;20465;-67
2022/10/07 10:39:00;;;;;;;5.47;2.10;;;16.90;99.90;;;;;;5022998;28;20785;-67
2022/10/07 10:41:36;;;;;;;7.43;2.23;;;17.00;99.90;;;;;;5022308;28;20447;-67
2022/10/07 10:44:38;;;;;;;3.97;2.27;;;17.10;99.90;;;;;;5020194;28;20451;-67
2022/10/07 10:47:15;;;;;;;4.77;2.70;;;17.20;99.90;;;;;;5016575;28;20539;-67
2022/10/07 10:49:49;;;;;;;5.40;2.40;;;17.20;99.90;;;;;;5021279;28;20443;-67
2022/10/07 10:52:29;;;;;;;4.97;2.00;;;17.30;99.90;;;;;;5021751;28;20451;-70
2022/10/07 10:55:18;;;;;;;3.60;2.13;;;17.40;99.90;;;;;;5020597;28;20483;-65
2022/10/07 10:57:54;;;;;;;2.97;2.30;;;17.40;99.90;;;;;;5022001;28;20472;-66
2022/10/07 11:00:22;;;;;;;5.90;2.90;;;17.40;99.90;;;;;;5023036;28;20440;-66
2022/10/07 11:03:13;;;;;;;4.93;2.00;;;17.40;99.90;;;;;;5021667;28;20484;-66
2022/10/07 11:05:41;;;;;;;6.23;2.27;;;17.50;99.90;;;;;;5021552;28;20480;-67
2022/10/07 11:08:15;;;;;;;2.60;1.80;;;17.50;99.90;;;;;;5020975;28;20457;-66
2022/10/07 11:10:48;;;;;;;4.73;1.90;;;17.50;99.90;;;;;;5021578;28;20512;-67
2022/10/07 11:13:27;;;;;;;3.47;1.87;;;17.50;99.90;;;;;;5020007;28;20506;-67
2022/10/07 11:15:59;;;;;;;3.97;1.93;;;17.60;99.90;;;;;;5020974;28;20918;-66
2022/10/07 11:18:34;;;;;;;2.97;1.97;;;17.70;99.90;;;;;;5021986;28;20488;-67
2022/10/07 11:21:03;;;;;;;6.97;2.10;;;17.80;99.90;;;;;;5021862;28;20444;-67
2022/10/07 11:23:41;;;;;;;9.33;2.27;;;17.80;99.90;;;;;;5023214;28;20488;-67
2022/10/07 11:26:16;;;;;;;4.87;1.93;;;17.90;99.90;;;;;;5021673;28;20445;-67
2022/10/07 11:28:46;;;;;;;6.20;2.10;;;18.00;99.90;;;;;;5021482;28;20557;-67
2022/10/07 11:31:20;;;;;;;6.00;2.10;;;18.10;99.90;;;;;;5024005;28;20480;-66
2022/10/07 11:33:54;;;;;;;8.67;1.90;;;18.20;99.90;;;;;;5022254;28;20445;-67
2022/10/07 11:36:25;;;;;;;4.90;2.17;;;18.20;99.90;;;;;;5020695;28;20500;-67
2022/10/07 11:38:53;;;;;;;5.13;1.83;;;18.20;99.90;;;;;;5021142;28;20441;-67
2022/10/07 11:41:26;;;;;;;4.40;1.93;;;18.30;99.90;;;;;;5020345;28;20529;-67
2022/10/07 11:43:58;;;;;;;3.83;1.53;;;18.40;99.90;;;;;;5019568;28;20476;-67
2022/10/07 11:46:29;;;;;;;4.27;2.37;;;18.50;99.90;;;;;;5021646;28;20437;-68
2022/10/07 11:49:02;;;;;;;4.70;2.07;;;18.80;99.90;;;;;;5020458;28;20470;-65
2022/10/07 11:51:33;;;;;;;4.63;1.80;;;19.50;99.90;;;;;;5021972;28;20532;-65
2022/10/07 11:54:02;;;;;;;6.30;1.80;;;20.40;99.90;;;;;;5021635;28;20447;-66
2022/10/07 11:56:36;;;;;;;2.70;1.60;;;21.60;99.90;;;;;;5020094;28;20524;-66
2022/10/07 11:59:06;;;;;;;4.27;1.87;;;22.50;95.60;;;;;;5022804;28;20441;-66
2022/10/07 12:01:52;;;;;;;4.73;1.90;;;23.30;90.40;;;;;;5022147;28;20469;-66
2022/10/07 12:04:46;;;;;;;2.03;1.30;;;23.90;80.40;;;;;;5021344;28;20813;-66
2022/10/07 12:07:36;;;;;;;3.97;1.90;;;24.70;72.20;;;;;;5020828;28;20469;-67
2022/10/07 12:10:28;;;;;;;4.17;1.97;;;25.50;64.10;;;;;;5018791;28;20488;-66
2022/10/07 12:12:58;;;;;;;4.83;1.60;;;25.70;59.60;;;;;;5017956;28;20536;-67
2022/10/07 12:15:30;;;;;;;4.60;1.90;;;26.10;59.40;;;;;;5018162;28;20960;-66
2022/10/07 12:18:37;;;;;;;4.67;2.37;;;26.50;57.50;;;;;;5018262;28;20469;-67
2022/10/07 12:21:06;;;;;;;5.97;2.60;;;26.60;55.40;;;;;;5010988;28;20511;-67
2022/10/07 12:23:46;;;;;;;3.53;1.90;;;27.10;54.00;;;;;;5017730;28;20460;-67
2022/10/07 12:26:41;;;;;;;4.20;2.30;;;27.60;51.60;;;;;;5016849;28;20491;-67
2022/10/07 12:29:23;;;;;;;5.10;1.80;;;27.60;50.40;;;;;;5018391;28;20498;-67
2022/10/07 12:31:51;;;;;;;5.87;1.90;;;26.60;50.50;;;;;;5018428;28;20766;-66
2022/10/07 12:34:33;;;;;;;2.60;1.60;;;26.40;50.80;;;;;;5016484;28;20584;-66
2022/10/07 12:37:34;;;;;;;2.67;1.80;;;26.70;51.10;;;;;;5016589;28;20473;-68
2022/10/07 12:40:05;;;;;;;2.40;1.50;;;27.00;49.70;;;;;;5018210;28;20461;-65
2022/10/07 12:42:33;;;;;;;2.90;1.60;;;27.20;48.40;;;;;;5016769;28;20827;-67
2022/10/07 12:45:02;;;;;;;6.23;2.10;;;27.20;48.50;;;;;;5016775;28;20477;-67
2022/10/07 12:47:31;;;;;;;3.00;1.60;;;27.10;48.40;;;;;;5017233;28;20453;-67
2022/10/07 12:50:01;;;;;;;3.33;1.80;;;27.10;48.10;;;;;;5017525;28;20460;-67
2022/10/07 12:52:41;;;;;;;4.57;2.20;;;27.30;47.50;;;;;;5017177;28;20438;-67
2022/10/07 12:55:10;;;;;;;4.23;1.97;;;27.30;45.80;;;;;;5016375;28;20505;-66
2022/10/07 12:57:40;;;;;;;4.67;1.80;;;27.50;45.30;;;;;;5016285;28;20536;-68
2022/10/07 13:00:11;;;;;;;3.00;1.67;;;27.40;46.10;;;;;;5016094;28;20464;-67
2022/10/07 13:03:14;;;;;;;7.30;1.73;;;27.40;44.70;;;;;;5016262;28;20461;-66
2022/10/07 13:06:27;;;;;;;3.53;1.47;;;27.70;45.10;;;;;;5016285;28;20535;-66
2022/10/07 13:09:24;;;;;;;4.40;1.73;;;27.80;42.80;;;;;;4970098;28;20460;-67
2022/10/07 13:12:28;;;;;;;3.40;1.70;;;27.90;42.70;;;;;;5013545;28;20465;-66
2022/10/07 13:15:07;;;;;;;4.80;1.90;;;27.90;42.40;;;;;;5004713;28;20507;-68
2022/10/07 13:17:46;;;;;;;5.67;1.97;;;27.90;42.00;;;;;;5017871;28;20437;-67